createdAt,value
2017-03-20T00:00:10.657Z,99.99
2017-03-20T00:01:32.528Z,99.99
2017-03-20T00:02:54.675Z,99.99
2017-03-20T00:04:17.435Z,99.99
2017-03-20T00:05:39.979Z,99.99
2017-03-20T00:07:01.481Z,99.99
2017-03-20T00:08:23.662Z,99.99
2017-03-20T00:09:46.080Z,99.99
2017-03-20T00:11:08.288Z,99.99
2017-03-20T00:12:30.758Z,99.99
2017-03-20T00:13:52.278Z,99.99
2017-03-20T00:15:14.668Z,99.99
2017-03-20T00:16:36.958Z,99.99
2017-03-20T00:17:58.798Z,99.99
2017-03-20T00:19:20.649Z,99.99
2017-03-20T00:20:43.055Z,99.99
2017-03-20T00:22:05.199Z,99.99
2017-03-20T00:23:27.668Z,99.99
2017-03-20T00:24:49.509Z,99.99
2017-03-20T00:26:11.596Z,99.99
2017-03-20T00:27:34.047Z,99.99
2017-03-20T00:28:56.519Z,99.99
2017-03-20T00:30:19.047Z,99.99
2017-03-20T00:31:40.871Z,99.99
2017-03-20T00:33:03.006Z,99.99
2017-03-20T00:34:25.267Z,99.99
2017-03-20T00:35:47.975Z,99.99
2017-03-20T00:37:10.707Z,99.99
2017-03-20T00:38:32.854Z,99.99
2017-03-20T00:39:54.347Z,99.99
2017-03-20T00:41:16.487Z,99.99
2017-03-20T00:42:38.619Z,99.99
2017-03-20T00:44:00.448Z,99.99
2017-03-20T00:45:22.574Z,99.99
2017-03-20T00:46:44.077Z,99.99
2017-03-20T00:48:06.460Z,99.99
2017-03-20T00:49:28.827Z,99.99
2017-03-20T00:50:50.698Z,99.99
2017-03-20T00:52:12.539Z,99.99
2017-03-20T00:53:34.605Z,99.99
2017-03-20T00:54:57.048Z,99.99
2017-03-20T00:56:19.671Z,99.99
2017-03-20T00:57:42.132Z,99.99
2017-03-20T00:59:04.404Z,99.99
2017-03-20T01:00:26.599Z,99.99
2017-03-20T01:01:48.746Z,99.99
2017-03-20T01:03:10.869Z,99.99
2017-03-20T01:04:33.687Z,99.99
2017-03-20T01:05:55.189Z,99.99
2017-03-20T01:07:17.013Z,99.99
2017-03-20T01:08:39.265Z,99.99
2017-03-20T01:10:01.423Z,99.99
2017-03-20T01:11:22.936Z,99.99
2017-03-20T01:12:44.449Z,99.99
2017-03-20T01:14:06.583Z,99.99
2017-03-20T01:15:28.707Z,99.99
2017-03-20T01:16:51.166Z,99.99
2017-03-20T01:18:13.310Z,99.99
2017-03-20T01:19:35.788Z,99.99
2017-03-20T01:20:58.288Z,99.99
2017-03-20T01:22:20.406Z,99.99
2017-03-20T01:23:42.548Z,99.99
2017-03-20T01:25:05.015Z,99.99
2017-03-20T01:26:27.421Z,99.99
2017-03-20T01:27:50.097Z,99.99
2017-03-20T01:29:12.259Z,99.99
2017-03-20T01:30:34.320Z,99.99
2017-03-20T01:31:57.076Z,99.99
2017-03-20T01:33:19.297Z,99.99
2017-03-20T01:34:41.781Z,99.99
2017-03-20T01:36:03.647Z,99.99
2017-03-20T01:37:25.268Z,99.99
2017-03-20T01:38:47.410Z,99.99
2017-03-20T01:40:09.797Z,99.99
2017-03-20T01:41:31.946Z,99.99
2017-03-20T01:42:54.055Z,99.99
2017-03-20T01:44:16.212Z,99.99
2017-03-20T01:45:38.340Z,99.99
2017-03-20T01:47:00.780Z,99.99
2017-03-20T01:48:23.592Z,99.99
2017-03-20T01:49:45.837Z,99.99
2017-03-20T01:51:07.726Z,99.99
2017-03-20T01:52:30.297Z,99.99
2017-03-20T01:53:52.695Z,99.99
2017-03-20T01:55:14.524Z,99.99
2017-03-20T01:56:36.967Z,99.99
2017-03-20T01:57:58.776Z,99.99
2017-03-20T01:59:20.911Z,99.99
2017-03-20T02:00:43.287Z,99.99
2017-03-20T02:02:05.116Z,99.99
2017-03-20T02:03:27.342Z,99.99
2017-03-20T02:04:49.789Z,99.99
2017-03-20T02:06:12.337Z,99.99
2017-03-20T02:07:34.437Z,99.99
2017-03-20T02:08:56.035Z,99.99
2017-03-20T02:10:18.468Z,99.99
2017-03-20T02:11:41.093Z,99.99
2017-03-20T02:13:03.678Z,99.99
2017-03-20T02:14:25.504Z,99.99
2017-03-20T02:15:47.263Z,99.99
2017-03-20T02:17:08.776Z,99.99
2017-03-20T02:18:30.273Z,99.99
2017-03-20T02:19:52.099Z,99.99
2017-03-20T02:21:14.483Z,99.99
2017-03-20T02:22:36.916Z,99.99
2017-03-20T02:23:59.053Z,99.99
2017-03-20T02:25:21.401Z,99.99
2017-03-20T02:26:44.265Z,99.99
2017-03-20T02:28:06.735Z,99.99
2017-03-20T02:29:28.560Z,99.99
2017-03-20T02:30:50.676Z,99.99
2017-03-20T02:32:13.470Z,99.99
2017-03-20T02:33:35.679Z,99.99
2017-03-20T02:34:57.817Z,99.99
2017-03-20T02:36:19.948Z,99.99
2017-03-20T02:37:42.366Z,99.99
2017-03-20T02:39:04.507Z,99.99
2017-03-20T02:40:26.161Z,99.99
2017-03-20T02:41:47.896Z,99.99
2017-03-20T02:43:10.327Z,99.99
2017-03-20T02:44:32.137Z,99.99
2017-03-20T02:45:54.266Z,99.99
2017-03-20T02:47:16.148Z,99.99
2017-03-20T02:48:38.017Z,99.99
2017-03-20T02:50:00.456Z,99.99
2017-03-20T02:51:22.602Z,99.99
2017-03-20T02:52:44.731Z,99.99
2017-03-20T02:54:07.596Z,99.99
2017-03-20T02:55:30.098Z,99.99
2017-03-20T02:56:51.914Z,99.99
2017-03-20T02:58:14.044Z,99.99
2017-03-20T02:59:36.524Z,99.99
2017-03-20T03:00:58.036Z,99.99
2017-03-20T03:02:20.205Z,99.99
2017-03-20T03:03:42.565Z,99.99
2017-03-20T03:05:04.950Z,99.99
2017-03-20T03:06:26.776Z,99.99
2017-03-20T03:07:48.272Z,99.99
2017-03-20T03:09:10.219Z,99.99
2017-03-20T03:10:32.596Z,99.99
2017-03-20T03:11:54.721Z,99.99
2017-03-20T03:13:16.522Z,99.99
2017-03-20T03:14:39.007Z,99.99
2017-03-20T03:16:00.519Z,99.99
2017-03-20T03:17:22.646Z,99.99
2017-03-20T03:18:44.148Z,99.99
2017-03-20T03:20:05.946Z,99.99
2017-03-20T03:21:28.137Z,99.99
2017-03-20T03:22:50.257Z,99.99
2017-03-20T03:24:12.144Z,99.99
2017-03-20T03:25:34.315Z,99.99
2017-03-20T03:26:56.127Z,99.99
2017-03-20T03:28:18.598Z,99.99
2017-03-20T03:29:40.727Z,99.99
2017-03-20T03:31:02.854Z,99.99
2017-03-20T03:32:25.097Z,99.99
2017-03-20T03:33:47.247Z,99.99
2017-03-20T03:35:09.067Z,99.99
2017-03-20T03:36:31.240Z,99.99
2017-03-20T03:37:53.615Z,99.99
2017-03-20T03:39:15.186Z,99.99
2017-03-20T03:40:37.064Z,99.99
2017-03-20T03:41:58.885Z,99.99
2017-03-20T03:43:21.049Z,99.99
2017-03-20T03:44:42.867Z,99.99
2017-03-20T03:46:05.348Z,99.99
2017-03-20T03:47:27.177Z,99.99
2017-03-20T03:48:49.007Z,99.99
2017-03-20T03:50:11.489Z,99.99
2017-03-20T03:51:33.324Z,99.99
2017-03-20T03:52:55.516Z,99.99
2017-03-20T03:54:17.598Z,99.99
2017-03-20T03:55:40.185Z,99.99
2017-03-20T03:57:02.008Z,99.99
2017-03-20T03:58:24.155Z,99.99
2017-03-20T03:59:46.617Z,99.99
2017-03-20T04:01:08.423Z,99.99
2017-03-20T04:02:30.628Z,99.99
2017-03-20T04:03:52.798Z,99.99
2017-03-20T04:05:15.248Z,99.99
2017-03-20T04:06:37.454Z,99.99
2017-03-20T04:07:59.829Z,99.99
2017-03-20T04:09:21.977Z,99.99
2017-03-20T04:10:44.033Z,99.99
2017-03-20T04:12:06.257Z,99.99
2017-03-20T04:13:28.400Z,99.99
2017-03-20T04:14:50.877Z,99.99
2017-03-20T04:16:13.023Z,99.99
2017-03-20T04:17:34.574Z,99.99
2017-03-20T04:18:56.465Z,99.99
2017-03-20T04:20:18.397Z,99.99
2017-03-20T04:21:40.840Z,99.99
2017-03-20T04:23:02.684Z,99.99
2017-03-20T04:24:24.303Z,99.99
2017-03-20T04:25:46.125Z,99.99
2017-03-20T04:27:07.868Z,99.99
2017-03-20T04:28:30.329Z,99.99
2017-03-20T04:29:52.798Z,99.99
2017-03-20T04:31:15.284Z,99.99
2017-03-20T04:32:37.777Z,99.99
2017-03-20T04:33:59.614Z,99.99
2017-03-20T04:35:21.750Z,99.99
2017-03-20T04:36:42.938Z,99.99
2017-03-20T04:38:05.439Z,99.99
2017-03-20T04:39:26.936Z,99.99
2017-03-20T04:40:48.767Z,99.99
2017-03-20T04:42:10.896Z,99.99
2017-03-20T04:43:33.398Z,99.99
2017-03-20T04:44:55.277Z,99.99
2017-03-20T04:46:17.080Z,99.99
2017-03-20T04:47:39.227Z,99.99
2017-03-20T04:49:01.797Z,99.99
2017-03-20T04:50:23.567Z,99.99
2017-03-20T04:51:46.045Z,99.99
2017-03-20T04:53:07.866Z,99.99
2017-03-20T04:54:30.580Z,99.99
2017-03-20T04:55:52.714Z,99.99
2017-03-20T04:57:14.584Z,99.99
2017-03-20T04:58:37.126Z,99.99
2017-03-20T04:59:59.317Z,99.99
2017-03-20T05:01:21.475Z,99.99
2017-03-20T05:02:43.567Z,99.99
2017-03-20T05:04:05.887Z,99.99
2017-03-20T05:05:28.331Z,99.99
2017-03-20T05:06:50.872Z,99.99
2017-03-20T05:08:13.006Z,99.99
2017-03-20T05:09:35.146Z,99.99
2017-03-20T05:10:57.850Z,99.99
2017-03-20T05:12:20.329Z,99.99
2017-03-20T05:13:42.930Z,99.99
2017-03-20T05:15:05.087Z,99.99
2017-03-20T05:16:27.273Z,99.99
2017-03-20T05:17:49.091Z,99.99
2017-03-20T05:19:11.128Z,99.99
2017-03-20T05:20:33.321Z,99.99
2017-03-20T05:21:55.436Z,99.99
2017-03-20T05:23:17.896Z,99.99
2017-03-20T05:24:39.717Z,99.99
2017-03-20T05:26:01.948Z,99.99
2017-03-20T05:27:24.152Z,99.99
2017-03-20T05:28:46.303Z,99.99
2017-03-20T05:30:07.828Z,99.99
2017-03-20T05:31:30.008Z,99.99
2017-03-20T05:32:52.425Z,99.99
2017-03-20T05:34:14.228Z,99.99
2017-03-20T05:35:36.190Z,99.99
2017-03-20T05:36:58.007Z,99.99
2017-03-20T05:38:19.818Z,99.99
2017-03-20T05:39:42.294Z,99.99
2017-03-20T05:41:04.177Z,99.99
2017-03-20T05:42:26.624Z,99.99
2017-03-20T05:43:49.082Z,99.99
2017-03-20T05:45:10.908Z,99.99
2017-03-20T05:46:33.052Z,99.99
2017-03-20T05:47:55.185Z,99.99
2017-03-20T05:49:17.628Z,99.99
2017-03-20T05:50:40.131Z,99.99
2017-03-20T05:52:02.276Z,99.99
2017-03-20T05:53:24.737Z,99.99
2017-03-20T05:54:47.519Z,99.99
2017-03-20T05:56:09.655Z,99.99
2017-03-20T05:57:31.815Z,99.99
2017-03-20T05:58:54.355Z,99.99
2017-03-20T06:00:16.170Z,99.99
2017-03-20T06:01:38.316Z,99.99
2017-03-20T06:03:00.197Z,99.99
2017-03-20T06:04:22.371Z,99.99
2017-03-20T06:05:45.098Z,99.99
2017-03-20T06:07:07.376Z,99.99
2017-03-20T06:08:30.006Z,99.99
2017-03-20T06:09:52.199Z,99.99
2017-03-20T06:11:14.310Z,99.99
2017-03-20T06:12:36.530Z,99.99
2017-03-20T06:13:59.009Z,99.99
2017-03-20T06:15:20.591Z,99.99
2017-03-20T06:16:42.723Z,99.99
2017-03-20T06:18:04.565Z,99.99
2017-03-20T06:19:27.025Z,99.99
2017-03-20T06:20:49.168Z,99.99
2017-03-20T06:22:11.563Z,99.99
2017-03-20T06:23:34.045Z,99.99
2017-03-20T06:24:56.196Z,99.99
2017-03-20T06:26:18.068Z,99.99
2017-03-20T06:27:40.822Z,99.99
2017-03-20T06:29:02.642Z,99.99
2017-03-20T06:30:24.810Z,99.99
2017-03-20T06:31:47.304Z,99.99
2017-03-20T06:33:10.087Z,99.99
2017-03-20T06:34:31.929Z,99.99
2017-03-20T06:35:54.402Z,99.99
2017-03-20T06:37:16.633Z,99.99
2017-03-20T06:38:38.718Z,99.99
2017-03-20T06:40:00.840Z,99.99
2017-03-20T06:41:22.989Z,99.99
2017-03-20T06:42:45.166Z,99.99
2017-03-20T06:44:07.654Z,99.99
2017-03-20T06:45:29.545Z,99.99
2017-03-20T06:46:51.769Z,99.99
2017-03-20T06:48:14.001Z,99.99
2017-03-20T06:49:36.401Z,99.99
2017-03-20T06:50:58.841Z,99.99
2017-03-20T06:52:20.994Z,99.99
2017-03-20T06:53:42.497Z,99.99
2017-03-20T06:55:04.555Z,99.99
2017-03-20T06:56:26.791Z,99.99
2017-03-20T06:57:48.616Z,99.99
2017-03-20T06:59:10.905Z,99.99
2017-03-20T07:00:33.466Z,99.99
2017-03-20T07:01:55.948Z,99.99
2017-03-20T07:03:18.410Z,99.99
2017-03-20T07:04:39.938Z,99.99
2017-03-20T07:06:02.332Z,99.99
2017-03-20T07:07:24.526Z,99.99
2017-03-20T07:08:46.336Z,99.99
2017-03-20T07:10:08.405Z,99.99
2017-03-20T07:11:31.144Z,99.99
2017-03-20T07:12:53.000Z,99.99
2017-03-20T07:14:15.684Z,99.99
2017-03-20T07:15:37.206Z,99.99
2017-03-20T07:16:59.341Z,99.99
2017-03-20T07:18:21.188Z,99.99
2017-03-20T07:19:43.360Z,99.99
2017-03-20T07:21:05.543Z,99.99
2017-03-20T07:22:27.597Z,99.99
2017-03-20T07:23:50.055Z,99.99
2017-03-20T07:25:12.507Z,99.99
2017-03-20T07:26:34.339Z,99.99
2017-03-20T07:27:57.340Z,99.99
2017-03-20T07:29:19.793Z,99.99
2017-03-20T07:30:41.616Z,99.99
2017-03-20T07:32:03.445Z,99.99
2017-03-20T07:33:25.902Z,99.99
2017-03-20T07:34:48.189Z,99.99
2017-03-20T07:36:10.664Z,99.99
2017-03-20T07:37:32.882Z,99.99
2017-03-20T07:38:55.638Z,99.99
2017-03-20T07:40:18.096Z,99.99
2017-03-20T07:41:40.583Z,99.99
2017-03-20T07:43:02.736Z,99.99
2017-03-20T07:44:25.597Z,99.99
2017-03-20T07:45:47.214Z,99.99
2017-03-20T07:47:09.408Z,99.99
2017-03-20T07:48:31.553Z,99.99
2017-03-20T07:49:54.341Z,99.99
2017-03-20T07:51:16.225Z,99.99
2017-03-20T07:52:38.378Z,99.99
2017-03-20T07:54:00.966Z,99.99
2017-03-20T07:55:23.926Z,99.99
2017-03-20T07:56:46.386Z,99.99
2017-03-20T07:58:08.728Z,99.99
2017-03-20T07:59:30.670Z,99.99
2017-03-20T08:00:53.108Z,99.99
2017-03-20T08:02:14.961Z,99.99
2017-03-20T08:03:36.798Z,99.99
2017-03-20T08:04:58.941Z,99.99
2017-03-20T08:06:21.788Z,99.99
2017-03-20T08:07:44.322Z,99.99
2017-03-20T08:09:06.216Z,99.99
2017-03-20T08:10:28.369Z,99.99
2017-03-20T08:11:51.153Z,99.99
2017-03-20T08:13:13.750Z,99.99
2017-03-20T08:14:36.078Z,99.99
2017-03-20T08:15:58.006Z,99.99
2017-03-20T08:17:20.459Z,99.99
2017-03-20T08:18:42.654Z,99.99
2017-03-20T08:20:04.488Z,99.99
2017-03-20T08:21:26.724Z,99.99
2017-03-20T08:22:49.444Z,99.99
2017-03-20T08:24:11.611Z,99.99
2017-03-20T08:25:33.814Z,99.99
2017-03-20T08:26:55.429Z,99.99
2017-03-20T08:28:17.907Z,99.99
2017-03-20T08:29:40.357Z,99.99
2017-03-20T08:31:02.832Z,99.99
2017-03-20T08:32:25.295Z,99.99
2017-03-20T08:33:47.455Z,99.99
2017-03-20T08:35:09.616Z,99.99
2017-03-20T08:36:32.133Z,99.99
2017-03-20T08:37:53.692Z,99.99
2017-03-20T08:39:16.278Z,99.99
2017-03-20T08:40:38.196Z,99.99
2017-03-20T08:42:00.334Z,99.99
2017-03-20T08:43:22.453Z,99.99
2017-03-20T08:44:44.558Z,99.99
2017-03-20T08:46:06.730Z,99.99
2017-03-20T08:47:29.232Z,99.99
2017-03-20T08:48:51.385Z,99.99
2017-03-20T08:50:12.843Z,99.99
2017-03-20T08:51:35.007Z,99.99
2017-03-20T08:52:57.167Z,99.99
2017-03-20T08:54:19.979Z,99.99
2017-03-20T08:55:42.732Z,99.99
2017-03-20T08:57:04.905Z,99.99
2017-03-20T08:58:27.071Z,99.99
2017-03-20T08:59:48.956Z,99.99
2017-03-20T09:01:11.355Z,99.99
2017-03-20T09:02:33.163Z,99.99
2017-03-20T09:03:54.999Z,99.99
2017-03-20T09:05:17.161Z,99.99
2017-03-20T09:06:39.625Z,99.99
2017-03-20T09:08:01.005Z,99.99
2017-03-20T09:09:23.470Z,99.99
2017-03-20T09:10:45.779Z,99.99
2017-03-20T09:12:08.356Z,99.99
2017-03-20T09:13:30.826Z,99.99
2017-03-20T09:14:53.378Z,99.99
2017-03-20T09:16:14.918Z,99.99
2017-03-20T09:17:37.428Z,99.99
2017-03-20T09:18:59.599Z,99.99
2017-03-20T09:20:22.064Z,99.99
2017-03-20T09:21:44.570Z,99.99
2017-03-20T09:23:07.014Z,99.99
2017-03-20T09:24:29.142Z,99.99
2017-03-20T09:25:51.433Z,99.99
2017-03-20T09:27:13.932Z,99.99
2017-03-20T09:28:35.727Z,99.99
2017-03-20T09:29:57.873Z,99.99
2017-03-20T09:31:20.340Z,99.99
2017-03-20T09:32:42.474Z,99.99
2017-03-20T09:34:04.559Z,99.99
2017-03-20T09:35:27.168Z,99.99
2017-03-20T09:36:49.615Z,99.99
2017-03-20T09:38:12.056Z,99.99
2017-03-20T09:39:34.148Z,99.99
2017-03-20T09:40:56.675Z,99.99
2017-03-20T09:42:18.232Z,99.99
2017-03-20T09:43:40.496Z,99.99
2017-03-20T09:45:02.903Z,99.99
2017-03-20T09:46:25.384Z,99.99
2017-03-20T09:47:47.193Z,99.99
2017-03-20T09:49:09.424Z,99.99
2017-03-20T09:50:31.842Z,99.99
2017-03-20T09:51:54.293Z,99.99
2017-03-20T09:53:16.193Z,99.99
2017-03-20T09:54:38.347Z,99.99
2017-03-20T09:56:01.163Z,99.99
2017-03-20T09:57:23.653Z,99.99
2017-03-20T09:58:45.819Z,99.99
2017-03-20T10:00:08.036Z,99.99
2017-03-20T10:01:30.836Z,99.04
2017-03-20T10:02:53.025Z,98.37
2017-03-20T10:04:15.167Z,98.18
2017-03-20T10:05:37.304Z,97.56
2017-03-20T10:06:59.723Z,96.89
2017-03-20T10:08:21.877Z,96.61
2017-03-20T10:09:43.754Z,96.42
2017-03-20T10:11:06.214Z,94.6
2017-03-20T10:12:28.341Z,94.6
2017-03-20T10:13:50.515Z,94.51
2017-03-20T10:15:13.034Z,94.07
2017-03-20T10:16:35.645Z,93.4
2017-03-20T10:17:58.387Z,94.07
2017-03-20T10:19:20.866Z,94.22
2017-03-20T10:20:42.722Z,94.22
2017-03-20T10:22:04.900Z,93.93
2017-03-20T10:23:27.664Z,93.36
2017-03-20T10:24:50.254Z,92.93
2017-03-20T10:26:12.501Z,92.74
2017-03-20T10:27:34.445Z,93.21
2017-03-20T10:28:57.203Z,93.69
2017-03-20T10:30:19.684Z,93.21
2017-03-20T10:31:42.314Z,93.02
2017-03-20T10:33:04.507Z,92.35
2017-03-20T10:34:26.663Z,92.83
2017-03-20T10:35:48.185Z,92.83
2017-03-20T10:37:10.326Z,93.02
2017-03-20T10:38:32.560Z,94.98
2017-03-20T10:39:54.383Z,94.98
2017-03-20T10:41:16.267Z,96.08
2017-03-20T10:42:38.546Z,96.56
2017-03-20T10:44:00.709Z,96.46
2017-03-20T10:45:22.795Z,96.56
2017-03-20T10:46:45.275Z,97.03
2017-03-20T10:48:07.440Z,97.71
2017-03-20T10:49:29.606Z,97.61
2017-03-20T10:50:52.056Z,98.8
2017-03-20T10:52:13.904Z,98.13
2017-03-20T10:53:36.053Z,98.13
2017-03-20T10:54:58.301Z,98.23
2017-03-20T10:56:21.255Z,97.42
2017-03-20T10:57:43.398Z,95.98
2017-03-20T10:59:05.237Z,96.17
2017-03-20T11:00:27.095Z,96.75
2017-03-20T11:01:48.858Z,95.07
2017-03-20T11:03:11.014Z,95.94
2017-03-20T11:04:33.189Z,95.94
2017-03-20T11:05:55.357Z,96.13
2017-03-20T11:07:18.013Z,95.84
2017-03-20T11:08:40.512Z,95.75
2017-03-20T11:10:02.658Z,96.99
2017-03-20T11:11:24.805Z,96.66
2017-03-20T11:12:47.600Z,97.89
2017-03-20T11:14:09.855Z,99.04
2017-03-20T11:15:31.999Z,99.43
2017-03-20T11:16:54.407Z,99.62
2017-03-20T11:18:16.505Z,99.23
2017-03-20T11:19:38.332Z,98.85
2017-03-20T11:21:00.174Z,98.85
2017-03-20T11:22:22.109Z,97.94
2017-03-20T11:23:44.863Z,97.47
2017-03-20T11:25:07.358Z,98.04
2017-03-20T11:26:29.568Z,96.7
2017-03-20T11:27:52.047Z,97.18
2017-03-20T11:29:14.882Z,97.18
2017-03-20T11:30:37.364Z,96.7
2017-03-20T11:31:59.831Z,96.47
2017-03-20T11:33:22.396Z,95.7
2017-03-20T11:34:45.177Z,95.61
2017-03-20T11:36:07.664Z,95.22
2017-03-20T11:37:29.811Z,96.18
2017-03-20T11:38:51.790Z,95.61
2017-03-20T11:40:13.678Z,95.89
2017-03-20T11:41:36.224Z,96.03
2017-03-20T11:42:58.465Z,96.8
2017-03-20T11:44:20.337Z,96.99
2017-03-20T11:45:43.087Z,97.28
2017-03-20T11:47:04.901Z,96.89
2017-03-20T11:48:27.388Z,96.51
2017-03-20T11:49:49.875Z,96.7
2017-03-20T11:51:12.343Z,95.36
2017-03-20T11:52:34.573Z,96.32
2017-03-20T11:53:57.077Z,96.99
2017-03-20T11:55:19.336Z,97.37
2017-03-20T11:56:41.885Z,96.42
2017-03-20T11:58:04.558Z,96.22
2017-03-20T11:59:26.738Z,96.13
2017-03-20T12:00:49.234Z,96.13
2017-03-20T12:02:11.855Z,95.89
2017-03-20T12:03:34.078Z,94.07
2017-03-20T12:04:55.893Z,94.46
2017-03-20T12:06:17.750Z,93.31
2017-03-20T12:07:39.612Z,92.35
2017-03-20T12:09:02.156Z,92.74
2017-03-20T12:10:24.337Z,92.4
2017-03-20T12:11:46.485Z,92.59
2017-03-20T12:13:08.570Z,92.69
2017-03-20T12:14:30.819Z,92.49
2017-03-20T12:15:52.710Z,90.39
2017-03-20T12:17:15.217Z,89.34
2017-03-20T12:18:37.956Z,88.81
2017-03-20T12:20:00.557Z,88.52
2017-03-20T12:21:22.903Z,88.28
2017-03-20T12:22:45.394Z,87.8
2017-03-20T12:24:07.854Z,87.61
2017-03-20T12:25:30.014Z,86.65
2017-03-20T12:26:52.519Z,87.41
2017-03-20T12:28:15.233Z,87.8
2017-03-20T12:29:37.304Z,88.23
2017-03-20T12:30:59.550Z,87.95
2017-03-20T12:32:22.050Z,87.8
2017-03-20T12:33:44.211Z,87.95
2017-03-20T12:35:06.970Z,89.34
2017-03-20T12:36:29.163Z,89.62
2017-03-20T12:37:51.656Z,89.34
2017-03-20T12:39:14.217Z,90.01
2017-03-20T12:40:36.913Z,91.3
2017-03-20T12:41:58.169Z,91.49
2017-03-20T12:43:20.685Z,92.16
2017-03-20T12:44:42.535Z,92.3
2017-03-20T12:46:05.394Z,92.69
2017-03-20T12:47:27.903Z,92.5
2017-03-20T12:48:50.087Z,92.07
2017-03-20T12:50:12.565Z,92.25
2017-03-20T12:51:35.378Z,92.54
2017-03-20T12:52:57.527Z,91.88
2017-03-20T12:54:20.042Z,93.02
2017-03-20T12:55:42.003Z,93.69
2017-03-20T12:57:04.588Z,93.65
2017-03-20T12:58:26.728Z,95.07
2017-03-20T12:59:48.660Z,96.61
2017-03-20T13:01:11.007Z,96.37
2017-03-20T13:02:33.195Z,96.94
2017-03-20T13:03:55.050Z,96.66
2017-03-20T13:05:17.509Z,97.42
2017-03-20T13:06:39.413Z,97.66
2017-03-20T13:08:01.804Z,97.85
2017-03-20T13:09:24.617Z,99.43
2017-03-20T13:10:47.112Z,99.99
2017-03-20T13:12:09.274Z,99.99
2017-03-20T13:13:31.668Z,99.99
2017-03-20T13:14:53.819Z,99.99
2017-03-20T13:16:16.307Z,99.99
2017-03-20T13:17:38.607Z,99.99
2017-03-20T13:19:01.456Z,99.99
2017-03-20T13:20:23.619Z,99.99
2017-03-20T13:21:45.771Z,99.99
2017-03-20T13:23:08.371Z,99.99
2017-03-20T13:24:31.267Z,99.99
2017-03-20T13:25:53.407Z,99.99
2017-03-20T13:27:15.256Z,99.99
2017-03-20T13:28:37.117Z,99.99
2017-03-20T13:29:59.609Z,99.99
2017-03-20T13:31:21.825Z,99.99
2017-03-20T13:32:44.417Z,99.99
2017-03-20T13:34:06.965Z,99.99
2017-03-20T13:35:29.438Z,99.99
2017-03-20T13:36:51.965Z,99.99
2017-03-20T13:38:14.402Z,99.99
2017-03-20T13:39:36.607Z,99.99
2017-03-20T13:40:59.312Z,99.99
2017-03-20T13:42:20.852Z,99.99
2017-03-20T13:43:43.009Z,99.99
2017-03-20T13:45:05.490Z,99.99
2017-03-20T13:46:28.191Z,99.99
2017-03-20T13:47:50.652Z,99.99
2017-03-20T13:49:12.897Z,99.99
2017-03-20T13:50:35.378Z,99.99
2017-03-20T13:51:57.331Z,99.99
2017-03-20T13:53:19.480Z,99.99
2017-03-20T13:54:41.665Z,99.99
2017-03-20T13:56:04.266Z,99.99
2017-03-20T13:57:26.802Z,99.99
2017-03-20T13:58:49.258Z,99.99
2017-03-20T14:00:11.548Z,99.99
2017-03-20T14:01:33.692Z,98.94
2017-03-20T14:02:56.077Z,98.66
2017-03-20T14:04:18.547Z,98.66
2017-03-20T14:05:40.401Z,98.57
2017-03-20T14:07:02.674Z,98.85
2017-03-20T14:08:25.132Z,99.43
2017-03-20T14:09:47.451Z,99.8
2017-03-20T14:11:09.924Z,99.99
2017-03-20T14:12:32.426Z,99.99
2017-03-20T14:13:54.509Z,99.99
2017-03-20T14:15:17.197Z,99.62
2017-03-20T14:16:39.320Z,99.62
2017-03-20T14:18:01.862Z,99.43
2017-03-20T14:19:24.652Z,99.23
2017-03-20T14:20:47.186Z,97.89
2017-03-20T14:22:09.689Z,98.47
2017-03-20T14:23:31.846Z,99.23
2017-03-20T14:24:54.328Z,99.9
2017-03-20T14:26:16.853Z,99.99
2017-03-20T14:27:38.999Z,99.99
2017-03-20T14:29:01.520Z,99.99
2017-03-20T14:30:24.287Z,99.99
2017-03-20T14:31:46.767Z,99.99
2017-03-20T14:33:08.624Z,99.99
2017-03-20T14:34:31.098Z,99.37
2017-03-20T14:35:53.616Z,99.23
2017-03-20T14:37:16.186Z,97.99
2017-03-20T14:38:38.039Z,97.32
2017-03-20T14:40:00.208Z,97.52
2017-03-20T14:41:22.306Z,97.8
2017-03-20T14:42:44.763Z,98.08
2017-03-20T14:44:07.235Z,97.52
2017-03-20T14:45:29.435Z,97.89
2017-03-20T14:46:52.365Z,98.75
2017-03-20T14:48:14.855Z,99.57
2017-03-20T14:49:37.840Z,99.99
2017-03-20T14:50:59.375Z,99.99
2017-03-20T14:52:22.274Z,99.99
2017-03-20T14:53:44.736Z,99.99
2017-03-20T14:55:07.530Z,99.99
2017-03-20T14:56:29.709Z,99.99
2017-03-20T14:57:52.188Z,99.99
2017-03-20T14:59:14.828Z,99.99
2017-03-20T15:00:36.997Z,99.99
2017-03-20T15:01:59.481Z,99.99
2017-03-20T15:03:22.245Z,99.99
2017-03-20T15:04:44.377Z,99.99
2017-03-20T15:06:06.545Z,99.99
2017-03-20T15:07:29.118Z,99.99
2017-03-20T15:08:51.555Z,99.99
2017-03-20T15:10:13.744Z,99.99
2017-03-20T15:11:35.909Z,99.99
2017-03-20T15:12:58.400Z,99.99
2017-03-20T15:14:20.850Z,99.99
2017-03-20T15:15:43.325Z,99.99
2017-03-20T15:17:05.774Z,99.99
2017-03-20T15:18:28.249Z,99.99
2017-03-20T15:19:50.968Z,99.99
2017-03-20T15:21:13.467Z,99.99
2017-03-20T15:22:35.948Z,99.99
2017-03-20T15:23:58.423Z,99.99
2017-03-20T15:25:21.222Z,99.99
2017-03-20T15:26:43.661Z,99.99
2017-03-20T15:28:06.148Z,99.99
2017-03-20T15:29:28.713Z,99.99
2017-03-20T15:30:51.592Z,99.99
2017-03-20T15:32:13.973Z,99.99
2017-03-20T15:33:36.140Z,99.99
2017-03-20T15:34:58.687Z,99.99
2017-03-20T15:36:21.175Z,99.99
2017-03-20T15:37:43.379Z,99.99
2017-03-20T15:39:05.549Z,99.99
2017-03-20T15:40:27.738Z,99.99
2017-03-20T15:41:50.214Z,99.99
2017-03-20T15:43:13.243Z,99.99
2017-03-20T15:44:35.749Z,99.99
2017-03-20T15:45:58.277Z,99.99
2017-03-20T15:47:20.788Z,99.99
2017-03-20T15:48:43.249Z,99.99
2017-03-20T15:50:05.426Z,99.99
2017-03-20T15:51:27.917Z,99.99
2017-03-20T15:52:50.725Z,99.99
2017-03-20T15:54:13.203Z,99.99
2017-03-20T15:55:35.043Z,99.99
2017-03-20T15:56:57.521Z,99.99
2017-03-20T15:58:19.686Z,99.99
2017-03-20T15:59:42.176Z,99.99
2017-03-20T16:01:04.694Z,99.99
2017-03-20T16:02:27.275Z,99.99
2017-03-20T16:03:49.359Z,99.99
2017-03-20T16:05:11.979Z,99.99
2017-03-20T16:06:34.110Z,99.99
2017-03-20T16:07:56.298Z,99.99
2017-03-20T16:09:19.047Z,99.99
2017-03-20T16:10:41.225Z,99.99
2017-03-20T16:12:04.283Z,99.99
2017-03-20T16:13:26.496Z,99.99
2017-03-20T16:14:48.709Z,99.99
2017-03-20T16:16:11.447Z,99.99
2017-03-20T16:17:33.617Z,99.99
2017-03-20T16:18:56.242Z,99.99
2017-03-20T16:20:19.172Z,99.99
2017-03-20T16:21:41.392Z,99.99
2017-03-20T16:23:04.204Z,99.99
2017-03-20T16:24:26.713Z,99.99
2017-03-20T16:25:49.211Z,99.99
2017-03-20T16:27:11.423Z,99.99
2017-03-20T16:28:33.308Z,99.99
2017-03-20T16:30:14.726Z,99.99
2017-03-20T16:33:28.582Z,99.99
2017-03-20T16:34:50.826Z,99.99
2017-03-20T16:36:13.135Z,99.99
2017-03-20T16:37:35.881Z,99.99
2017-03-20T16:38:58.360Z,99.99
2017-03-20T16:40:20.557Z,99.99
2017-03-20T16:41:42.421Z,99.99
2017-03-20T16:43:04.922Z,99.99
2017-03-20T16:44:26.884Z,99.99
2017-03-20T16:45:49.348Z,99.99
2017-03-20T16:47:11.882Z,99.99
2017-03-20T16:48:34.280Z,99.99
2017-03-20T16:49:56.865Z,99.99
2017-03-20T16:51:19.552Z,99.99
2017-03-20T16:52:42.061Z,99.99
2017-03-20T16:54:05.247Z,99.99
2017-03-20T16:55:27.783Z,99.99
2017-03-20T16:56:50.274Z,99.99
2017-03-20T16:58:12.901Z,99.99
2017-03-20T16:59:35.050Z,99.99
2017-03-20T17:00:57.109Z,99.99
2017-03-20T17:02:19.529Z,99.99
2017-03-20T17:03:41.391Z,99.99
2017-03-20T17:05:04.339Z,99.99
2017-03-20T17:06:26.817Z,99.99
2017-03-20T17:07:48.377Z,99.99
2017-03-20T17:09:10.237Z,99.99
2017-03-20T17:10:32.690Z,99.99
2017-03-20T17:11:55.188Z,99.99
2017-03-20T17:13:17.704Z,99.99
2017-03-20T17:14:40.185Z,99.99
2017-03-20T17:16:02.727Z,99.99
2017-03-20T17:17:24.864Z,99.99
2017-03-20T17:18:47.623Z,99.99
2017-03-20T17:20:10.125Z,99.99
2017-03-20T17:21:32.772Z,99.99
2017-03-20T17:22:55.048Z,99.99
2017-03-20T17:24:17.824Z,99.99
2017-03-20T17:25:40.432Z,99.99
2017-03-20T17:27:03.327Z,99.99
2017-03-20T17:28:25.486Z,99.99
2017-03-20T17:29:48.036Z,99.99
2017-03-20T17:31:10.786Z,99.99
2017-03-20T17:32:33.572Z,99.99
2017-03-20T17:33:55.747Z,99.99
2017-03-20T17:35:18.463Z,99.99
2017-03-20T17:36:40.855Z,99.99
2017-03-20T17:38:03.612Z,99.99
2017-03-20T17:39:25.840Z,99.99
2017-03-20T17:40:48.418Z,99.99
2017-03-20T17:42:10.612Z,99.99